WetterOnline ( https://www.wetteronline.de )

Wetter aktuell Zeuthen

Aktuelles Wetter: Berlin-Dahlem (70m)

6-stündlich | Neueste Meldungen
Ortszeit Temperatur Wetter
Mi, 25.11. 7:00 0.6° C Nebel (abnehmend)
Mi, 25.11. 1:00 0.2° C leicht bewölkt
Di, 24.11. 19:00 1.8° C fast wolkenlos
Di, 24.11. 13:00 6.5° C leicht bewölkt
Di, 24.11. 7:00 0.5° C leicht bewölkt
Di, 24.11. 1:00 2.3° C wolkenlos
Mo, 23.11. 19:00 6.8° C wolkig
Mo, 23.11. 13:00 8.1° C leicht bewölkt
Ortszeit Temperatur Wetter
Mi, 25.11. 12:00 1.7° C bedeckt, nach Nebel
Mi, 25.11. 11:00 1.5° C Nebel (zunehmend)
Mi, 25.11. 10:00 1.4° C Dunst
Mi, 25.11. 9:00 1.2° C bedeckt, nach Nebel
Mi, 25.11. 8:00 1.0° C Nebel
Mi, 25.11. 7:00 0.6° C Nebel (abnehmend)
Ortszeit Relative Feuchte Sichtweite
Mi, 25.11. 7:00 100% 0.7 km
Mi, 25.11. 1:00 100% 5.0 km
Di, 24.11. 19:00 96% 25 km
Di, 24.11. 13:00 74% 20 km
Di, 24.11. 7:00 98% 10 km
Di, 24.11. 1:00 96% 50 km
Mo, 23.11. 19:00 79% 35 km
Mo, 23.11. 13:00 73% 45 km
Ortszeit Relative Feuchte Sichtweite
Mi, 25.11. 12:00 100% 1.0 km
Mi, 25.11. 11:00 100% 0.7 km
Mi, 25.11. 10:00 100% 1.0 km
Mi, 25.11. 9:00 100% 1.0 km
Mi, 25.11. 8:00 100% 0.7 km
Mi, 25.11. 7:00 100% 0.7 km
Ortszeit Niederschlagsmenge Niederschlagsart
Mi, 25.11. 7:00 0.0 l/m2 in 12 Std. Nebel
Mi, 25.11. 1:00 0.0 l/m2 in 6 Std. -
Di, 24.11. 19:00 0.0 l/m2 in 12 Std. -
Di, 24.11. 13:00 0.0 l/m2 in 6 Std. -
Di, 24.11. 7:00 0.0 l/m2 in 12 Std. -
Di, 24.11. 1:00 0.0 l/m2 in 6 Std. -
Mo, 23.11. 19:00 0.1 l/m2 in 12 Std. Schauer
Mo, 23.11. 13:00 0.1 l/m2 in 6 Std. Schauer
Ortszeit Niederschlagsmenge Niederschlagsart
Mi, 25.11. 12:00 keine Meldung -
Mi, 25.11. 11:00 keine Meldung -
Mi, 25.11. 10:00 keine Meldung -
Mi, 25.11. 9:00 keine Meldung -
Mi, 25.11. 8:00 keine Meldung -
Mi, 25.11. 7:00 keine Meldung -
Ortszeit Stärke Spitze Richtung
km/h Bft. km/h Grad Sektor
Mi, 25.11. 7:00 11 2 - 190° S
Mi, 25.11. 1:00 14 3 - 170° S
Di, 24.11. 19:00 11 2 - 180° S
Di, 24.11. 13:00 14 3 - 200° S
Di, 24.11. 7:00 14 3 - 210° SW
Di, 24.11. 1:00 11 2 - 200° S
Mo, 23.11. 19:00 11 2 - 250° W
Mo, 23.11. 13:00 25 4 - 270° W
Ortszeit Stärke Spitze Richtung
km/h Bft. km/h Grad Sektor
Mi, 25.11. 12:00 11 2 - 180° S
Mi, 25.11. 11:00 7 2 - 170° S
Mi, 25.11. 10:00 11 2 - 180° S
Mi, 25.11. 9:00 14 3 - 190° S
Mi, 25.11. 8:00 14 3 - 180° S
Mi, 25.11. 7:00 11 2 - 190° S
Ortszeit Untergrenze Bedeckung Gattung
total tief tief mittel hoch
Mi, 25.11. 7:00 30 m 8/8 8/8 St - -
Mi, 25.11. 1:00 390 m 5/8 1/8 St - Ci
Di, 24.11. 19:00 9000 m 1/8 0/8 - - Ci
Di, 24.11. 13:00 1200 m 6/8 1/8 Sc - Ci
Di, 24.11. 7:00 3000 m 5/8 1/8 - Ac Ci
Di, 24.11. 1:00 - 0/8 0/8 - - -
Mo, 23.11. 19:00 1080 m 5/8 5/8 Sc - -
Mo, 23.11. 13:00 600 m 2/8 2/8 Cu - -
Ortszeit Bedeckungsgrad in Achtel und Wolkenuntergrenze
Mi, 25.11. 12:00 8(60m)
Mi, 25.11. 11:00 8(60m)
Mi, 25.11. 10:00 8(60m)
Mi, 25.11. 9:00 8(60m)
Mi, 25.11. 8:00 8(30m)
Mi, 25.11. 7:00 8(30m)
Ortszeit Luftdruck NN (hPa) Tendenz (hPa in 3 Std.)
Mi, 25.11. 7:00 1021 - 0,3
Mi, 25.11. 1:00 1022 - 1,4
Di, 24.11. 19:00 1024 - 0,5
Di, 24.11. 13:00 1025 - 1,5
Di, 24.11. 7:00 1027 - 0,5
Di, 24.11. 1:00 1029 - 0,1
Mo, 23.11. 19:00 1028 + 1,5
Mo, 23.11. 13:00 1025 + 0,9
Ortszeit Luftdruck NN (hPa) Tendenz (hPa in 3 Std.)
Mi, 25.11. 12:00 1020 - 0,5
Mi, 25.11. 11:00 1021 0,0
Mi, 25.11. 10:00 1021 + 0,3
Mi, 25.11. 9:00 1021 + 0,3
Mi, 25.11. 8:00 1021 0,0
Mi, 25.11. 7:00 1021 - 0,3
Ortszeit Schneehöhe (cm)
Mi, 25.11. 7:00 0
Mi, 25.11. 1:00 0
Di, 24.11. 19:00 0
Di, 24.11. 13:00 0
Di, 24.11. 7:00 0
Di, 24.11. 1:00 0
Mo, 23.11. 19:00 0
Mo, 23.11. 13:00 0
Ortszeit Schneehöhe (cm)
Mi, 25.11. 12:00 -
Mi, 25.11. 11:00 -
Mi, 25.11. 10:00 -
Mi, 25.11. 9:00 -
Mi, 25.11. 8:00 -
Mi, 25.11. 7:00 0
Link zu dieser Seite / Seite empfehlen

Das Wetter in ...